Terminal Aerodrome Forecast
Issued by NWS Charleston, SC

Home | Current Version | Previous Version | Text Only | Print | Product List | Glossary On
Versions: 1 2 3 4 5 6 7 8 9 10 11 12 13 14 15 16 17 18 19
000
FTUS42 KCHS 250500
TAFCHS
TAF
KCHS 250536Z 2506/2606 VRB03KT P6SM FEW250
     FM250900 15006KT P6SM SCT008 BKN060
     FM251400 20013G19KT P6SM SKC
     FM251800 23015G23KT P6SM SCT050
     FM260200 27008KT P6SM FEW060=

USA.gov is the U.S. government's official web portal to all federal, state and local government web resources and services.